NCAR-RAP Real-Time Weather Data

Output produced by METARs form (08 May 2021  16:28 UTC)
found at http://weather.rap.ucar.edu/surface/
 
KPHX 081551Z 12006KT 10SM FEW250 26/M03 A2986 RMK AO2 SLP092 T02561033
KPHX 081451Z 11007KT 10SM FEW250 24/M03 A2985 RMK AO2 SLP089 T02391028 51018
KPHX 081351Z 11006KT 10SM FEW250 22/M01 A2984 RMK AO2 SLP087 T02171006
KPHX 081251Z 10006KT 10SM SCT250 21/M02 A2981 RMK AO2 SLP077 T02061017
KPHX 081151Z 10006KT 10SM SCT250 21/00 A2979 RMK AO2 SLP069 T02110000 10289 20211 53008
KPHX 081051Z 11003KT 10SM FEW250 23/00 A2978 RMK AO2 SLP067 T02330000
KPHX 080951Z 12003KT 10SM FEW250 24/M02 A2977 RMK AO2 SLP062 T02391017
KPHX 080851Z VRB03KT 10SM FEW250 26/M05 A2977 RMK AO2 SLP060 T02561050 55002
KPHX 080751Z 28010KT 10SM FEW250 27/M03 A2976 RMK AO2 SLP059 T02721033
KPHX 080651Z 31008KT 10SM CLR 28/M02 A2977 RMK AO2 SLP060 T02831017 403560228
KPHX 080551Z 26008KT 10SM CLR 29/M02 A2977 RMK AO2 SLP062 T02891017 10350 20289 53013
KPHX 080451Z 27009KT 10SM CLR 31/M02 A2976 RMK AO2 SLP057 T03061017
KPHX 080351Z 25006KT 10SM CLR 31/M02 A2975 RMK AO2 SLP054 T03061017
KPHX 080251Z 26010KT 10SM FEW200 FEW290 33/M03 A2973 RMK AO2 SLP050 T03281028 55008
KPHX 080151Z 28014KT 10SM CLR 34/M02 A2973 RMK AO2 SLP047 T03391022
KPHX 080051Z 32010G15KT 10SM CLR 34/M02 A2974 RMK AO2 SLP053 T03441022
KPHX 072351Z 28004KT 10SM CLR 35/M04 A2976 RMK AO2 SLP058 T03501039 10356 20306 56027
KPHX 072251Z COR 26010G16KT 10SM CLR 36/M04 A2977 RMK AO2 SLP062 T03561044
KPHX 072151Z COR 33004KT 10SM CLR 34/M05 A2981 RMK AO2 SLP074 T03441050
KPHX 072051Z 31011KT 10SM CLR 34/M06 A2984 RMK AO2 SLP085 T03441061 58026
KPHX 071951Z VRB04KT 10SM CLR 33/M06 A2987 RMK AO2 SLP095 T03281056
KPHX 071851Z 04004KT 10SM CLR 32/M05 A2990 RMK AO2 SLP106 T03171050
KPHX 071751Z VRB04KT 10SM CLR 32/M04 A2992 RMK AO2 SLP112 T03221039 10322 20228 58004
KPHX 071651Z VRB04KT 10SM CLR 29/M04 A2993 RMK AO2 SLP117 T02891039
KPHX 071551Z 00000KT 10SM CLR 28/M04 A2994 RMK AO2 SLP120 T02781044
KPHX 071451Z 00000KT 10SM CLR 26/00 A2994 RMK AO2 SLP118 T02610000 51014
KPHX 071351Z 00000KT 10SM CLR 24/02 A2993 RMK AO2 SLP115 T02440017
KPHX 071251Z 08005KT 10SM CLR 23/02 A2990 RMK AO2 SLP107 T02330017
KPHX 071151Z 09005KT 10SM CLR 24/01 A2989 RMK AO2 SLP104 T02390011 10306 20233 51007
KPHX 071051Z 12003KT 10SM CLR 24/02 A2989 RMK AO2 SLP101 T02440017
KPHX 070951Z 09003KT 10SM CLR 26/02 A2988 RMK AO2 SLP099 T02560022
KPHX 070851Z VRB05KT 10SM CLR 28/00 A2987 RMK AO2 SLP096 T02780000 50002
KPHX 070751Z 00000KT 10SM CLR 27/01 A2988 RMK AO2 SLP097 T02720006
KPHX 070651Z 26009KT 10SM CLR 29/01 A2987 RMK AO2 SLP094 T02940006 403780217
KPHX 070551Z 27014KT 10SM CLR 31/01 A2987 RMK AO2 SLP093 T03060006 10378 20306 51015
KPHX 070451Z 27015KT 10SM CLR 32/M01 A2986 RMK AO2 SLP092 T03171006
KPHX 070351Z 26012KT 10SM CLR 33/M01 A2984 RMK AO2 SLP087 T03331011
KPHX 070251Z 28014KT 10SM FEW250 35/M01 A2982 RMK AO2 SLP079 T03501011 53002
KPHX 070151Z 26012KT 10SM FEW250 36/M02 A2981 RMK AO2 SLP075 T03611017
KPHX 070051Z 32011G21KT 10SM FEW120 SCT250 37/M02 A2981 RMK AO2 SLP076 T03671017
KPHX 062351Z 29009KT 10SM FEW120 SCT250 37/M02 A2982 RMK AO2 SLP077 T03721017 10378 20317 56023
KPHX 062251Z 10SM FEW120 SCT250 37/M02 A2984 RMK AO2 SLP084 T03721017
KPHX 062151Z COR VRB04KT 10SM FEW120 SCT250 37/M01 A2986 RMK AO2 SLP091 T03721011 $
KPHX 062051Z 32006KT 10SM FEW120 FEW250 37/M01 A2989 RMK AO2 SLP100 T03671011 58025 $
KPHX 061951Z 00000KT 10SM FEW120 FEW250 34/M01 A2992 RMK AO2 SLP111 T03441011 $
KPHX 061851Z VRB05KT 10SM FEW120 34/M01 A2994 RMK AO2 SLP119 T03391011 $
KPHX 061751Z 24005KT 10SM CLR 32/M01 A2997 RMK AO2 SLP128 T03171011 10317 20217 $
KPHX 061651Z 00000KT 10SM CLR 29/M01 A2997 RMK AO2 SLP129 T02941011 $